createdAt,value
2018-02-15T00:01:31.586Z,-4.93
2018-02-15T00:03:57.601Z,-4.97
2018-02-15T00:06:23.650Z,-5.07
2018-02-15T00:08:49.668Z,-5.05
2018-02-15T00:11:15.653Z,-5.13
2018-02-15T00:13:41.653Z,-5.18
2018-02-15T00:16:07.734Z,-5.35
2018-02-15T00:18:33.751Z,-5.52
2018-02-15T00:20:59.709Z,-5.83
2018-02-15T00:23:25.699Z,-6.21
2018-02-15T00:25:51.668Z,-5.98
2018-02-15T00:28:17.661Z,-5.92
2018-02-15T00:30:43.692Z,-5.73
2018-02-15T00:33:09.685Z,-5.72
2018-02-15T00:35:35.641Z,-5.68
2018-02-15T00:38:01.701Z,-5.61
2018-02-15T00:40:27.722Z,-5.62
2018-02-15T00:42:53.780Z,-5.68
2018-02-15T00:45:19.800Z,-5.72
2018-02-15T00:47:45.836Z,-5.76
2018-02-15T00:50:11.826Z,-5.79
2018-02-15T00:52:37.848Z,-5.78
2018-02-15T00:55:03.814Z,-5.65
2018-02-15T00:57:29.978Z,-5.64
2018-02-15T00:59:55.976Z,-5.62
2018-02-15T01:02:21.972Z,-5.98
2018-02-15T01:04:47.997Z,-5.88
2018-02-15T01:07:14.006Z,-5.59
2018-02-15T01:09:40.006Z,-5.57
2018-02-15T01:12:06.033Z,-5.82
2018-02-15T01:14:32.081Z,-5.95
2018-02-15T01:16:58.112Z,-6.17
2018-02-15T01:19:24.117Z,-5.96
2018-02-15T01:21:50.142Z,-5.96
2018-02-15T01:24:16.181Z,-5.91
2018-02-15T01:26:42.216Z,-5.94
2018-02-15T01:29:08.232Z,-5.88
2018-02-15T01:31:34.241Z,-5.88
2018-02-15T01:34:00.244Z,-5.90
2018-02-15T01:36:26.237Z,-5.87
2018-02-15T01:38:52.308Z,-5.86
2018-02-15T01:41:18.301Z,-5.87
2018-02-15T01:43:44.302Z,-6.18
2018-02-15T01:46:10.308Z,-6.27
2018-02-15T01:48:36.362Z,-6.29
2018-02-15T01:51:02.354Z,-6.21
2018-02-15T01:53:28.345Z,-6.13
2018-02-15T01:55:54.384Z,-6.12
2018-02-15T01:58:20.390Z,-6.08
2018-02-15T02:00:46.493Z,-6.09
2018-02-15T02:03:12.564Z,-6.03
2018-02-15T02:05:38.569Z,-6.04
2018-02-15T02:08:04.628Z,-6.01
2018-02-15T02:10:30.672Z,-5.95
2018-02-15T02:12:56.674Z,-6.05
2018-02-15T02:15:22.686Z,-6.09
2018-02-15T02:17:48.672Z,-6.15
2018-02-15T02:20:21.749Z,-6.07
2018-02-15T02:22:47.742Z,-6.14
2018-02-15T02:25:13.748Z,-6.11
2018-02-15T02:27:39.768Z,-6.12
2018-02-15T02:30:05.789Z,-6.11
2018-02-15T02:32:32.093Z,-6.08
2018-02-15T02:34:58.089Z,-6.22
2018-02-15T02:37:24.081Z,-6.29
2018-02-15T02:39:50.089Z,-6.36
2018-02-15T02:42:16.054Z,-6.31
2018-02-15T02:44:42.446Z,-6.26
2018-02-15T02:47:08.455Z,-6.23
2018-02-15T02:49:34.454Z,-6.21
2018-02-15T02:52:00.469Z,-6.26
2018-02-15T02:54:26.453Z,-6.17
2018-02-15T02:56:52.469Z,-6.27
2018-02-15T02:59:18.517Z,-6.45
2018-02-15T03:01:44.518Z,-6.36
2018-02-15T03:04:10.562Z,-6.37
2018-02-15T03:06:36.541Z,-6.29
2018-02-15T03:09:02.566Z,-6.39
2018-02-15T03:11:28.530Z,-6.41
2018-02-15T03:13:54.542Z,-6.36
2018-02-15T03:16:20.492Z,-6.38
2018-02-15T03:18:46.516Z,-6.51
2018-02-15T03:21:12.557Z,-6.43
2018-02-15T03:26:31.014Z,-6.43
2018-02-15T03:28:57.014Z,-6.46
2018-02-15T03:31:23.009Z,-6.49
2018-02-15T03:33:49.015Z,-6.55
2018-02-15T03:36:15.077Z,-6.49
2018-02-15T03:38:41.121Z,-6.48
2018-02-15T03:41:07.116Z,-6.46
2018-02-15T03:43:33.173Z,-6.47
2018-02-15T03:45:59.172Z,-6.44
2018-02-15T03:48:25.158Z,-6.44
2018-02-15T03:50:51.162Z,-6.41
2018-02-15T03:53:17.571Z,-6.36
2018-02-15T03:55:43.653Z,-6.37
2018-02-15T03:58:09.695Z,-6.42
2018-02-15T04:00:35.706Z,-6.35
2018-02-15T04:03:01.727Z,-6.34
2018-02-15T04:05:27.681Z,-6.31
2018-02-15T04:07:53.704Z,-6.35
2018-02-15T04:10:19.764Z,-6.42
2018-02-15T04:12:45.757Z,-6.36
2018-02-15T04:15:11.800Z,-6.27
2018-02-15T04:17:37.809Z,-6.22
2018-02-15T04:20:03.932Z,-6.14
2018-02-15T04:22:29.917Z,-5.98
2018-02-15T04:24:55.931Z,-5.93
2018-02-15T04:27:21.958Z,-5.74
2018-02-15T04:29:47.989Z,-5.67
2018-02-15T04:32:13.999Z,-5.63
2018-02-15T04:34:39.993Z,-5.50
2018-02-15T04:37:06.021Z,-5.50
2018-02-15T04:39:32.018Z,-5.44
2018-02-15T04:41:57.993Z,-5.41
2018-02-15T04:44:24.030Z,-5.43
2018-02-15T04:46:50.026Z,-5.46
2018-02-15T04:49:16.030Z,-5.43
2018-02-15T04:51:42.050Z,-5.43
2018-02-15T04:54:08.176Z,-5.53
2018-02-15T04:56:34.270Z,-5.44
2018-02-15T04:59:00.305Z,-5.40
2018-02-15T05:01:26.393Z,-5.44
2018-02-15T05:03:52.396Z,-5.47
2018-02-15T05:06:18.404Z,-5.43
2018-02-15T05:08:44.389Z,-5.41
2018-02-15T05:11:10.385Z,-5.42
2018-02-15T05:13:36.408Z,-5.41
2018-02-15T05:16:02.424Z,-5.32
2018-02-15T05:18:28.446Z,-5.28
2018-02-15T05:20:54.527Z,-5.26
2018-02-15T05:23:20.528Z,-5.21
2018-02-15T05:25:46.564Z,-5.24
2018-02-15T05:28:12.562Z,-5.19
2018-02-15T05:30:38.545Z,-5.15
2018-02-15T05:33:04.514Z,-5.16
2018-02-15T05:35:30.589Z,-5.15
2018-02-15T05:37:56.560Z,-5.00
2018-02-15T05:40:22.553Z,-5.06
2018-02-15T05:42:48.621Z,-4.96
2018-02-15T05:45:14.643Z,-5.01
2018-02-15T05:47:40.704Z,-5.00
2018-02-15T05:50:06.709Z,-5.06
2018-02-15T05:52:32.728Z,-4.98
2018-02-15T05:54:58.722Z,-4.86
2018-02-15T05:57:24.728Z,-4.72
2018-02-15T05:59:50.707Z,-4.74
2018-02-15T06:02:16.745Z,-4.67
2018-02-15T06:04:42.768Z,-4.71
2018-02-15T06:07:08.768Z,-4.64
2018-02-15T06:09:34.824Z,-4.60
2018-02-15T06:12:00.900Z,-4.49
2018-02-15T06:14:26.918Z,-4.45
2018-02-15T06:16:53.009Z,-4.43
2018-02-15T06:19:18.943Z,-4.41
2018-02-15T06:21:44.965Z,-4.51
2018-02-15T06:24:10.996Z,-4.48
2018-02-15T06:26:36.961Z,-4.48
2018-02-15T06:29:02.988Z,-4.54
2018-02-15T06:31:29.025Z,-4.50
2018-02-15T06:33:55.054Z,-4.50
2018-02-15T06:36:21.071Z,-4.59
2018-02-15T06:38:47.069Z,-4.67
2018-02-15T06:41:13.124Z,-4.73
2018-02-15T06:43:39.137Z,-4.73
2018-02-15T06:46:05.164Z,-4.69
2018-02-15T06:48:31.238Z,-4.70
2018-02-15T06:50:57.245Z,-4.64
2018-02-15T06:53:23.284Z,-4.61
2018-02-15T06:55:49.305Z,-4.54
2018-02-15T06:58:15.308Z,-4.51
2018-02-15T07:00:41.372Z,-4.50
2018-02-15T07:03:07.392Z,-4.52
2018-02-15T07:05:33.396Z,-4.53
2018-02-15T07:07:59.412Z,-4.51
2018-02-15T07:10:25.425Z,-4.40
2018-02-15T07:12:51.481Z,-4.35
2018-02-15T07:15:17.483Z,-4.22
2018-02-15T07:17:43.428Z,-3.98
2018-02-15T07:20:09.664Z,-3.87
2018-02-15T07:22:35.701Z,-3.96
2018-02-15T07:25:01.984Z,-3.94
2018-02-15T07:27:27.989Z,-3.97
2018-02-15T07:29:54.315Z,-3.95
2018-02-15T07:32:20.323Z,-3.82
2018-02-15T07:34:46.343Z,-3.89
2018-02-15T07:37:12.361Z,-3.84
2018-02-15T07:39:38.346Z,-3.82
2018-02-15T07:42:04.382Z,-3.71
2018-02-15T07:44:30.412Z,-3.73
2018-02-15T07:46:56.566Z,-3.62
2018-02-15T07:49:22.592Z,-3.62
2018-02-15T07:51:48.628Z,-3.58
2018-02-15T07:54:14.667Z,-3.60
2018-02-15T07:56:40.644Z,-3.41
2018-02-15T07:59:06.692Z,-3.43
2018-02-15T08:01:32.713Z,-3.27
2018-02-15T08:03:58.736Z,-3.32
2018-02-15T08:06:24.780Z,-3.33
2018-02-15T08:08:50.816Z,-3.24
2018-02-15T08:11:16.826Z,-3.23
2018-02-15T08:13:42.826Z,-3.24
2018-02-15T08:16:08.876Z,-3.17
2018-02-15T08:18:34.869Z,-3.05
2018-02-15T08:21:00.898Z,-3.00
2018-02-15T08:23:26.893Z,-2.94
2018-02-15T08:25:52.916Z,-2.87
2018-02-15T08:28:18.933Z,-2.99
2018-02-15T08:30:44.964Z,-3.00
2018-02-15T08:33:10.977Z,-2.77
2018-02-15T08:35:36.997Z,-2.79
2018-02-15T08:38:03.001Z,-2.65
2018-02-15T08:40:29.044Z,-2.59
2018-02-15T08:42:55.097Z,-2.44
2018-02-15T08:45:21.120Z,-2.37
2018-02-15T08:47:47.124Z,-2.38
2018-02-15T08:50:13.135Z,-2.45
2018-02-15T08:52:39.136Z,-2.36
2018-02-15T08:55:05.317Z,-2.31
2018-02-15T08:57:31.300Z,-2.39
2018-02-15T08:59:57.438Z,-2.31
2018-02-15T09:02:23.485Z,-2.22
2018-02-15T09:04:49.544Z,-2.14
2018-02-15T09:07:15.527Z,-1.90
2018-02-15T09:09:41.605Z,-1.74
2018-02-15T09:12:07.639Z,-1.78
2018-02-15T09:14:33.637Z,-1.63
2018-02-15T09:16:59.645Z,-1.55
2018-02-15T09:19:25.616Z,-1.47
2018-02-15T09:21:51.684Z,-1.28
2018-02-15T09:24:17.705Z,-1.28
2018-02-15T09:26:43.680Z,-1.16
2018-02-15T09:29:09.670Z,-1.34
2018-02-15T09:31:35.689Z,-1.41
2018-02-15T09:34:01.718Z,-1.30
2018-02-15T09:36:27.751Z,-1.31
2018-02-15T09:38:53.840Z,-1.39
2018-02-15T09:41:19.876Z,-1.43
2018-02-15T09:43:45.902Z,-1.24
2018-02-15T09:46:11.940Z,-1.08
2018-02-15T09:48:37.950Z,-0.88
2018-02-15T09:51:03.918Z,-0.88
2018-02-15T09:53:29.936Z,-0.86
2018-02-15T09:55:55.961Z,-0.79
2018-02-15T09:58:22.004Z,-0.91
2018-02-15T10:00:47.999Z,-0.54
2018-02-15T10:03:13.990Z,-0.32
2018-02-15T10:05:40.013Z,-0.23
2018-02-15T10:08:06.049Z,-0.22
2018-02-15T10:10:32.101Z,-0.16
2018-02-15T10:12:58.153Z,0.07
2018-02-15T10:15:24.185Z,0.19
2018-02-15T10:17:50.149Z,0.21
2018-02-15T10:20:16.150Z,0.19
2018-02-15T10:22:42.176Z,0.21
2018-02-15T10:25:08.204Z,0.25
2018-02-15T10:27:34.216Z,0.34
2018-02-15T10:30:00.240Z,0.44
2018-02-15T10:32:26.300Z,0.42
2018-02-15T10:34:52.286Z,0.60
2018-02-15T10:37:18.303Z,0.65
2018-02-15T10:39:44.325Z,0.66
2018-02-15T10:42:10.355Z,0.67
2018-02-15T10:44:36.342Z,0.67
2018-02-15T10:47:02.417Z,0.64
2018-02-15T10:49:28.429Z,0.65
2018-02-15T10:51:54.500Z,0.66
2018-02-15T10:54:20.488Z,0.63
2018-02-15T10:56:46.506Z,0.65
2018-02-15T10:59:12.541Z,0.72
2018-02-15T11:01:40.464Z,0.80
2018-02-15T11:04:12.895Z,0.91
2018-02-15T11:06:38.937Z,0.93
2018-02-15T11:09:04.925Z,1.04
2018-02-15T11:11:31.777Z,1.05
2018-02-15T11:13:57.805Z,1.06
2018-02-15T11:16:23.724Z,1.02
2018-02-15T11:18:49.809Z,1.00
2018-02-15T11:21:15.802Z,0.94
2018-02-15T11:23:41.883Z,1.02
2018-02-15T11:26:07.892Z,1.05
2018-02-15T11:28:33.872Z,1.11
2018-02-15T11:30:59.928Z,1.13
2018-02-15T11:33:25.961Z,1.11
2018-02-15T11:35:51.954Z,1.11
2018-02-15T11:38:18.004Z,1.09
2018-02-15T11:40:44.020Z,1.22
2018-02-15T11:43:10.041Z,1.24
2018-02-15T11:45:36.032Z,1.30
2018-02-15T11:48:02.039Z,1.25
2018-02-15T11:50:28.061Z,1.28
2018-02-15T11:52:54.096Z,1.29
2018-02-15T11:55:20.126Z,1.16
2018-02-15T11:57:46.148Z,1.23
2018-02-15T12:02:45.792Z,1.22
2018-02-15T12:05:11.842Z,1.07
2018-02-15T12:07:37.854Z,1.14
2018-02-15T12:10:03.849Z,1.23
2018-02-15T12:12:29.901Z,1.08
2018-02-15T12:14:55.860Z,1.12
2018-02-15T12:17:21.892Z,1.27
2018-02-15T12:19:47.934Z,1.25
2018-02-15T12:22:13.963Z,1.17
2018-02-15T12:24:39.957Z,1.11
2018-02-15T12:27:06.017Z,1.18
2018-02-15T12:29:32.046Z,1.24
2018-02-15T12:31:58.055Z,1.22
2018-02-15T12:34:24.037Z,1.21
2018-02-15T12:36:50.036Z,1.23
2018-02-15T12:39:16.076Z,1.06
2018-02-15T12:41:42.147Z,1.07
2018-02-15T12:44:08.136Z,1.13
2018-02-15T12:46:34.172Z,1.21
2018-02-15T12:49:00.205Z,1.20
2018-02-15T12:51:26.190Z,1.28
2018-02-15T12:53:52.235Z,1.34
2018-02-15T12:56:18.302Z,1.37
2018-02-15T12:58:44.332Z,1.36
2018-02-15T13:01:10.383Z,1.28
2018-02-15T13:03:36.424Z,1.28
2018-02-15T13:06:02.453Z,1.32
2018-02-15T13:08:28.466Z,1.40
2018-02-15T13:10:54.468Z,1.45
2018-02-15T13:13:30.367Z,1.46
2018-02-15T13:16:08.623Z,1.47
2018-02-15T13:18:34.635Z,1.48
2018-02-15T13:21:00.661Z,1.50
2018-02-15T13:23:26.657Z,1.52
2018-02-15T13:25:52.703Z,1.51
2018-02-15T13:28:30.859Z,1.56
2018-02-15T13:30:56.897Z,1.63
2018-02-15T13:33:22.908Z,1.71
2018-02-15T13:35:48.920Z,1.71
2018-02-15T13:38:14.957Z,1.79
2018-02-15T13:40:40.977Z,1.80
2018-02-15T13:43:07.007Z,1.73
2018-02-15T13:45:33.020Z,1.73
2018-02-15T13:47:59.052Z,1.77
2018-02-15T13:50:25.069Z,1.80
2018-02-15T13:52:51.153Z,1.81
2018-02-15T13:55:17.257Z,1.80
2018-02-15T13:57:43.240Z,1.77
2018-02-15T14:00:09.253Z,1.78
2018-02-15T14:02:35.220Z,1.80
2018-02-15T14:05:01.213Z,1.83
2018-02-15T14:07:27.188Z,1.81
2018-02-15T14:09:53.189Z,1.88
2018-02-15T14:12:19.186Z,1.81
2018-02-15T14:14:45.165Z,1.91
2018-02-15T14:17:11.214Z,1.86
2018-02-15T14:19:37.247Z,1.83
2018-02-15T14:22:03.268Z,1.84
2018-02-15T14:24:29.367Z,1.78
2018-02-15T14:26:55.366Z,1.72
2018-02-15T14:29:21.380Z,1.68
2018-02-15T14:31:47.396Z,1.64
2018-02-15T14:34:13.498Z,1.57
2018-02-15T14:36:39.664Z,1.59
2018-02-15T14:39:05.740Z,1.54
2018-02-15T14:41:31.760Z,1.53
2018-02-15T14:43:57.908Z,1.48
2018-02-15T14:46:23.935Z,1.48
2018-02-15T14:48:49.944Z,1.33
2018-02-15T14:51:15.984Z,1.19
2018-02-15T14:53:42.021Z,1.01
2018-02-15T14:56:08.016Z,0.88
2018-02-15T14:58:33.989Z,0.78
2018-02-15T15:01:00.041Z,0.67
2018-02-15T15:03:26.061Z,0.53
2018-02-15T15:05:52.065Z,0.49
2018-02-15T15:08:18.080Z,0.45
2018-02-15T15:10:44.060Z,0.35
2018-02-15T15:13:10.080Z,0.32
2018-02-15T15:15:36.092Z,0.22
2018-02-15T15:18:02.125Z,0.15
2018-02-15T15:20:28.105Z,0.12
2018-02-15T15:22:54.137Z,0.03
2018-02-15T15:25:20.081Z,0.06
2018-02-15T15:27:46.116Z,0.03
2018-02-15T15:30:12.136Z,0.05
2018-02-15T15:32:38.168Z,0.03
2018-02-15T15:35:04.297Z,0.01
2018-02-15T15:37:30.319Z,-0.08
2018-02-15T15:39:56.453Z,-0.08
2018-02-15T15:42:22.491Z,-0.05
2018-02-15T15:44:48.529Z,-0.09
2018-02-15T15:47:14.544Z,-0.05
2018-02-15T15:49:40.544Z,-0.04
2018-02-15T15:52:06.546Z,0.01
2018-02-15T15:54:32.800Z,-0.08
2018-02-15T15:56:58.813Z,-0.09
2018-02-15T15:59:24.846Z,-0.08
2018-02-15T16:01:50.896Z,-0.08
2018-02-15T16:04:16.961Z,-0.15
2018-02-15T16:06:43.038Z,-0.09
2018-02-15T16:09:09.024Z,-0.05
2018-02-15T16:11:35.145Z,-0.11
2018-02-15T16:14:01.162Z,-0.13
2018-02-15T16:16:27.194Z,-0.07
2018-02-15T16:18:53.294Z,-0.12
2018-02-15T16:21:19.347Z,-0.11
2018-02-15T16:23:45.375Z,-0.06
2018-02-15T16:26:11.405Z,-0.10
2018-02-15T16:28:37.434Z,-0.09
2018-02-15T16:31:03.481Z,-0.05
2018-02-15T16:33:29.542Z,-0.07
2018-02-15T16:35:55.628Z,-0.16
2018-02-15T16:38:21.630Z,-0.18
2018-02-15T16:40:47.722Z,-0.16
2018-02-15T16:43:13.720Z,-0.08
2018-02-15T16:45:39.780Z,-0.12
2018-02-15T16:48:05.837Z,-0.10
2018-02-15T16:50:31.877Z,-0.04
2018-02-15T16:52:57.901Z,-0.07
2018-02-15T16:55:23.901Z,0.00
2018-02-15T16:57:49.958Z,-0.09
2018-02-15T17:00:16.133Z,-0.10
2018-02-15T17:02:42.150Z,-0.11
2018-02-15T17:05:08.444Z,-0.10
2018-02-15T17:07:34.380Z,-0.07
2018-02-15T17:10:00.407Z,-0.07
2018-02-15T17:12:26.427Z,-0.05
2018-02-15T17:14:52.473Z,-0.05
2018-02-15T17:17:18.576Z,-0.14
2018-02-15T17:19:44.574Z,-0.06
2018-02-15T17:22:10.592Z,-0.09
2018-02-15T17:24:36.620Z,-0.09
2018-02-15T17:27:02.643Z,-0.08
2018-02-15T17:29:28.639Z,-0.12
2018-02-15T17:31:54.676Z,-0.06
2018-02-15T17:34:20.718Z,-0.04
2018-02-15T17:36:46.768Z,-0.05
2018-02-15T17:39:12.782Z,-0.05
2018-02-15T17:41:38.885Z,-0.09
2018-02-15T17:44:04.958Z,-0.05
2018-02-15T17:46:30.972Z,-0.02
2018-02-15T17:48:57.087Z,0.01
2018-02-15T17:51:23.149Z,0.07
2018-02-15T17:53:49.185Z,-0.01
2018-02-15T17:56:15.212Z,-0.09
2018-02-15T17:58:41.226Z,-0.03
2018-02-15T18:01:07.241Z,-0.01
2018-02-15T18:03:33.254Z,0.00
2018-02-15T18:05:59.275Z,0.00
2018-02-15T18:08:25.293Z,-0.09
2018-02-15T18:10:51.277Z,-0.04
2018-02-15T18:13:17.336Z,-0.11
2018-02-15T18:15:43.378Z,-0.11
2018-02-15T18:18:09.385Z,-0.09
2018-02-15T18:20:35.398Z,-0.05
2018-02-15T18:23:01.352Z,-0.07
2018-02-15T18:25:27.382Z,0.03
2018-02-15T18:27:53.387Z,-0.04
2018-02-15T18:30:19.434Z,0.02
2018-02-15T18:32:45.507Z,0.08
2018-02-15T18:35:11.608Z,0.11
2018-02-15T18:37:37.626Z,0.01
2018-02-15T18:40:03.687Z,0.04
2018-02-15T18:42:29.718Z,-0.08
2018-02-15T18:44:55.733Z,0.00
2018-02-15T18:47:21.864Z,-0.05
2018-02-15T18:49:47.937Z,0.03
2018-02-15T18:52:13.964Z,0.02
2018-02-15T18:54:39.996Z,0.02
2018-02-15T18:57:06.000Z,-0.03
2018-02-15T18:59:31.996Z,-0.10
2018-02-15T19:01:57.977Z,-0.07
2018-02-15T19:04:24.049Z,0.06
2018-02-15T19:06:50.095Z,0.02
2018-02-15T19:09:16.098Z,0.05
2018-02-15T19:11:42.124Z,0.05
2018-02-15T19:14:09.128Z,0.01
2018-02-15T19:16:35.196Z,-0.03
2018-02-15T19:19:01.209Z,0.00
2018-02-15T19:21:27.324Z,0.03
2018-02-15T19:23:53.333Z,0.12
2018-02-15T19:26:19.359Z,0.06
2018-02-15T19:28:45.424Z,0.13
2018-02-15T19:31:11.464Z,0.07
2018-02-15T19:33:37.517Z,-0.05
2018-02-15T19:36:03.593Z,-0.01
2018-02-15T19:38:29.631Z,0.02
2018-02-15T19:40:55.703Z,0.00
2018-02-15T19:43:21.760Z,0.08
2018-02-15T19:45:47.907Z,0.06
2018-02-15T19:48:13.819Z,0.06
2018-02-15T19:50:39.838Z,-0.01
2018-02-15T19:53:05.943Z,0.00
2018-02-15T19:55:31.945Z,0.00
2018-02-15T19:57:57.977Z,0.06
2018-02-15T20:00:24.006Z,0.04
2018-02-15T20:02:50.031Z,0.03
2018-02-15T20:05:16.080Z,-0.02
2018-02-15T20:07:42.105Z,0.05
2018-02-15T20:10:08.093Z,0.09
2018-02-15T20:12:34.250Z,0.03
2018-02-15T20:15:00.347Z,0.10
2018-02-15T20:17:26.368Z,0.13
2018-02-15T20:19:58.615Z,0.11
2018-02-15T20:22:24.630Z,0.04
2018-02-15T20:24:50.643Z,-0.01
2018-02-15T20:27:22.901Z,-0.05
2018-02-15T20:29:48.889Z,0.00
2018-02-15T20:32:15.010Z,-0.02
2018-02-15T20:34:41.013Z,0.01
2018-02-15T20:37:07.036Z,0.03
2018-02-15T20:42:38.920Z,-0.04
2018-02-15T20:45:04.876Z,0.05
2018-02-15T20:47:30.905Z,0.07
2018-02-15T20:50:03.103Z,0.01
2018-02-15T20:52:35.302Z,0.02
2018-02-15T20:55:07.416Z,0.05
2018-02-15T20:57:33.512Z,0.05
2018-02-15T20:59:59.536Z,0.03
2018-02-15T21:02:25.513Z,0.02
2018-02-15T21:04:51.579Z,0.07
2018-02-15T21:07:17.655Z,0.10
2018-02-15T21:09:43.677Z,0.13
2018-02-15T21:12:09.712Z,0.13
2018-02-15T21:14:35.782Z,-0.01
2018-02-15T21:17:01.837Z,0.08
2018-02-15T21:19:27.845Z,0.07
2018-02-15T21:21:53.898Z,0.10
2018-02-15T21:24:19.905Z,0.14
2018-02-15T21:26:45.935Z,0.24
2018-02-15T21:29:12.071Z,0.21
2018-02-15T21:31:38.092Z,0.14
2018-02-15T21:34:04.182Z,0.22
2018-02-15T21:36:30.198Z,0.21
2018-02-15T21:38:56.224Z,0.25
2018-02-15T21:41:22.216Z,0.31
2018-02-15T21:43:48.257Z,0.26
2018-02-15T21:46:14.285Z,0.19
2018-02-15T21:48:40.300Z,0.18
2018-02-15T21:51:06.267Z,0.13
2018-02-15T21:53:32.265Z,0.20
2018-02-15T21:55:58.285Z,0.26
2018-02-15T21:58:24.402Z,0.28
2018-02-15T22:00:50.472Z,0.37
2018-02-15T22:03:16.516Z,0.40
2018-02-15T22:05:42.560Z,0.28
2018-02-15T22:08:08.631Z,0.17
2018-02-15T22:10:34.623Z,0.12
2018-02-15T22:13:00.631Z,0.18
2018-02-15T22:15:26.641Z,0.17
2018-02-15T22:17:53.024Z,0.20
2018-02-15T22:20:26.035Z,0.35
2018-02-15T22:22:52.029Z,0.23
2018-02-15T22:25:18.123Z,0.20
2018-02-15T22:27:44.189Z,0.41
2018-02-15T22:30:10.173Z,0.33
2018-02-15T22:32:36.182Z,0.26
2018-02-15T22:35:02.272Z,0.46
2018-02-15T22:37:28.305Z,0.38
2018-02-15T22:39:54.340Z,0.37
2018-02-15T22:42:20.394Z,0.33
2018-02-15T22:44:46.416Z,0.36
2018-02-15T22:47:12.409Z,0.39
2018-02-15T22:49:38.413Z,0.56
2018-02-15T22:52:04.441Z,0.47
2018-02-15T22:54:30.482Z,0.39
2018-02-15T22:56:56.498Z,0.35
2018-02-15T22:59:22.545Z,0.44
2018-02-15T23:01:48.534Z,0.56
2018-02-15T23:04:14.576Z,0.41
2018-02-15T23:06:40.618Z,0.35
2018-02-15T23:09:06.641Z,0.44
2018-02-15T23:11:32.633Z,0.36
2018-02-15T23:13:58.687Z,0.34
2018-02-15T23:16:24.670Z,0.49
2018-02-15T23:18:50.721Z,0.66
2018-02-15T23:21:16.753Z,0.52
2018-02-15T23:23:42.780Z,0.53
2018-02-15T23:26:08.819Z,0.59
2018-02-15T23:28:34.818Z,0.61
2018-02-15T23:31:00.857Z,0.43
2018-02-15T23:33:26.842Z,0.37
2018-02-15T23:35:52.909Z,0.45
2018-02-15T23:38:18.928Z,0.53
2018-02-15T23:40:44.934Z,0.49
2018-02-15T23:43:10.976Z,0.43
2018-02-15T23:45:36.979Z,0.43
2018-02-15T23:48:02.996Z,0.43
2018-02-15T23:50:28.993Z,0.39
2018-02-15T23:52:55.037Z,0.32
2018-02-15T23:55:21.052Z,0.32
2018-02-15T23:57:47.015Z,0.38
